Time;durP1;ratioP1;P1;durP2;ratioP2;P2;SDS_P1;SDS_P2;PMS_P1;PMS_P2;Temp;Humidity;BMP_temperature;BMP_pressure;BME280_temperature;BME280_humidity;BME280_pressure;Samples;Min_cycle;Max_cycle;Signal;HPM_P1;HPM_P2
2023/02/14 00:04:42;;;;;;;37.92;18.75;;;;;;;;;;10295738;28;20026;-78
2023/02/14 00:09:43;;;;;;;36.00;17.40;;;;;;;;;;10305849;28;20030;-77
2023/02/14 00:20:02;;;;;;;34.08;17.77;;;;;;;;;;10307447;28;20034;-75
2023/02/14 00:25:02;;;;;;;37.40;19.30;;;;;;;;;;10300510;28;20023;-76
2023/02/14 00:30:03;;;;;;;39.73;19.23;;;;;;;;;;10271038;28;20305;-74
2023/02/14 00:35:03;;;;;;;37.35;19.88;;;;;;;;;;10272965;28;20121;-74
2023/02/14 00:40:04;;;;;;;42.37;19.30;;;;;;;;;;10285596;28;20074;-79
2023/02/14 00:45:05;;;;;;;37.63;18.48;;;;;;;;;;10281686;28;20278;-78
2023/02/14 00:50:05;;;;;;;41.50;20.30;;;;;;;;;;10281069;28;20027;-77
2023/02/14 00:55:05;;;;;;;39.33;18.77;;;;;;;;;;10313047;28;20126;-77
2023/02/14 01:00:06;;;;;;;43.97;20.35;;;;;;;;;;10323731;28;20274;-73
2023/02/14 01:05:06;;;;;;;40.00;20.23;;;;;;;;;;10322833;28;20488;-79
2023/02/14 01:10:07;;;;;;;42.20;20.85;;;;;;;;;;10321332;28;20032;-78
2023/02/14 01:15:07;;;;;;;41.15;19.20;;;;;;;;;;10322142;28;20018;-77
2023/02/14 01:20:08;;;;;;;35.90;18.38;;;;;;;;;;10322396;28;20034;-77
2023/02/14 01:25:08;;;;;;;40.25;20.70;;;;;;;;;;10321133;28;20035;-76
2023/02/14 01:30:09;;;;;;;40.53;19.00;;;;;;;;;;10301018;28;20022;-76
2023/02/14 01:35:09;;;;;;;46.35;21.10;;;;;;;;;;10322741;28;20026;-77
2023/02/14 01:40:11;;;;;;;38.20;20.30;;;;;;;;;;10321288;28;20109;-76
2023/02/14 01:45:19;;;;;;;43.63;21.70;;;;;;;;;;10321149;28;20041;-75
2023/02/14 01:50:21;;;;;;;;;;;;;;;;;;10321043;28;20026;-75
2023/02/14 01:55:25;;;;;;;40.53;19.65;;;;;;;;;;10322572;28;20391;-76
2023/02/14 02:05:47;;;;;;;48.58;22.50;;;;;;;;;;10315961;28;20038;-77
2023/02/14 02:10:47;;;;;;;45.53;22.17;;;;;;;;;;10321071;28;20027;-77
2023/02/14 02:16:02;;;;;;;43.88;24.52;;;;;;;;;;10322982;28;20100;-78
2023/02/14 02:21:31;;;;;;;42.03;21.83;;;;;;;;;;10320308;28;20142;-77
2023/02/14 02:26:50;;;;;;;42.28;21.67;;;;;;;;;;10298556;28;20034;-78
2023/02/14 02:32:00;;;;;;;38.72;19.92;;;;;;;;;;10319991;28;20022;-76
2023/02/14 02:37:00;;;;;;;43.58;21.75;;;;;;;;;;10318987;28;20030;-77
2023/02/14 02:42:08;;;;;;;43.58;19.67;;;;;;;;;;10319255;28;20493;-76
2023/02/14 02:47:08;;;;;;;43.17;20.55;;;;;;;;;;10321018;28;20033;-77
2023/02/14 02:57:33;;;;;;;40.70;20.35;;;;;;;;;;10315012;28;20030;-74
2023/02/14 03:04:46;;;;;;;39.65;20.02;;;;;;;;;;10317861;28;20034;-78
2023/02/14 03:07:55;;;;;;;37.30;17.85;;;;;;;;;;10317853;28;20050;-77
2023/02/14 03:12:59;;;;;;;41.58;19.38;;;;;;;;;;10316034;28;20101;-76
2023/02/14 03:18:07;;;;;;;38.97;18.20;;;;;;;;;;10309021;28;20026;-77
2023/02/14 03:23:21;;;;;;;42.58;20.15;;;;;;;;;;10316829;28;20022;-77
2023/02/14 03:28:41;;;;;;;34.78;16.63;;;;;;;;;;10333185;28;20104;-74
2023/02/14 03:33:54;;;;;;;41.28;19.35;;;;;;;;;;10303548;28;20393;-75
2023/02/14 03:39:13;;;;;;;42.33;19.40;;;;;;;;;;10319800;28;20070;-76
2023/02/14 03:44:16;;;;;;;34.92;18.63;;;;;;;;;;10316377;28;20027;-76
2023/02/14 03:49:19;;;;;;;40.22;17.65;;;;;;;;;;10317027;28;20359;-75
2023/02/14 03:54:21;;;;;;;39.83;17.98;;;;;;;;;;10318552;28;20047;-72
2023/02/14 03:59:23;;;;;;;32.45;16.40;;;;;;;;;;10317590;28;20155;-80
2023/02/14 04:04:26;;;;;;;34.97;17.38;;;;;;;;;;10317359;28;20026;-75
2023/02/14 04:09:26;;;;;;;36.75;18.02;;;;;;;;;;10317725;28;20027;-76
2023/02/14 04:14:29;;;;;;;34.75;17.15;;;;;;;;;;10317393;28;20026;-78
2023/02/14 04:19:29;;;;;;;34.50;15.75;;;;;;;;;;10321029;28;20025;-77
2023/02/14 04:24:29;;;;;;;36.45;17.00;;;;;;;;;;10319912;28;20034;-76
2023/02/14 04:29:29;;;;;;;34.47;16.88;;;;;;;;;;10316688;28;20556;-76
2023/02/14 04:34:30;;;;;;;36.60;18.52;;;;;;;;;;10316722;28;20088;-78
2023/02/14 04:39:30;;;;;;;37.72;16.88;;;;;;;;;;10317017;28;20018;-75
2023/02/14 04:44:32;;;;;;;42.72;17.98;;;;;;;;;;10315909;28;20018;-77
2023/02/14 04:49:33;;;;;;;37.05;16.95;;;;;;;;;;10301308;28;20041;-79
2023/02/14 04:54:33;;;;;;;35.57;16.37;;;;;;;;;;10322724;28;20432;-78
2023/02/14 04:59:33;;;;;;;34.90;16.08;;;;;;;;;;10323015;28;20420;-78
2023/02/14 05:04:33;;;;;;;33.65;17.33;;;;;;;;;;10308399;28;20018;-72
2023/02/14 05:09:34;;;;;;;33.55;16.40;;;;;;;;;;10310334;28;20041;-72
2023/02/14 05:14:34;;;;;;;36.53;16.00;;;;;;;;;;10316123;28;20400;-78
2023/02/14 05:19:34;;;;;;;25.02;15.32;;;;;;;;;;10310040;28;20885;-78
2023/02/14 05:24:35;;;;;;;31.67;15.75;;;;;;;;;;10320810;28;20100;-78
2023/02/14 05:29:35;;;;;;;30.25;15.13;;;;;;;;;;10321108;28;20034;-77
2023/02/14 05:34:35;;;;;;;32.55;15.82;;;;;;;;;;10319986;28;20026;-79
2023/02/14 05:39:35;;;;;;;34.90;16.07;;;;;;;;;;10320676;28;20042;-78
2023/02/14 05:44:36;;;;;;;29.95;16.73;;;;;;;;;;10319080;28;20485;-78
2023/02/14 05:49:36;;;;;;;31.45;16.63;;;;;;;;;;10318335;28;20408;-79
2023/02/14 05:54:36;;;;;;;39.88;17.05;;;;;;;;;;10307897;28;20726;-78
2023/02/14 05:59:37;;;;;;;37.03;18.37;;;;;;;;;;10316342;28;20031;-78
2023/02/14 06:04:37;;;;;;;31.23;16.73;;;;;;;;;;10317807;28;20505;-79
2023/02/14 06:09:37;;;;;;;32.78;17.10;;;;;;;;;;10322996;28;20042;-73
2023/02/14 06:14:37;;;;;;;33.95;15.98;;;;;;;;;;10328761;28;20096;-78
2023/02/14 06:19:38;;;;;;;30.27;15.90;;;;;;;;;;10322808;28;20030;-70
2023/02/14 06:24:38;;;;;;;33.88;15.55;;;;;;;;;;10320187;28;20026;-76
2023/02/14 06:29:38;;;;;;;44.15;17.30;;;;;;;;;;10303991;28;20161;-76
2023/02/14 06:34:39;;;;;;;33.17;16.05;;;;;;;;;;10312593;28;20027;-79
2023/02/14 06:39:40;;;;;;;43.50;18.20;;;;;;;;;;10308897;28;20018;-76
2023/02/14 06:44:40;;;;;;;40.40;18.98;;;;;;;;;;10333434;28;20049;-76
2023/02/14 06:49:40;;;;;;;36.03;16.85;;;;;;;;;;10329674;28;20034;-78
2023/02/14 06:54:40;;;;;;;32.03;15.35;;;;;;;;;;10327012;28;20042;-74
2023/02/14 06:59:41;;;;;;;30.00;14.63;;;;;;;;;;10313528;28;20104;-76
2023/02/14 07:04:41;;;;;;;37.42;16.15;;;;;;;;;;10317932;28;20044;-78
2023/02/14 07:09:41;;;;;;;34.20;14.88;;;;;;;;;;10318806;28;20033;-78
2023/02/14 07:14:41;;;;;;;34.00;14.77;;;;;;;;;;10319648;28;20136;-76
2023/02/14 07:19:42;;;;;;;39.25;17.13;;;;;;;;;;10317568;28;20061;-79
2023/02/14 07:24:43;;;;;;;41.97;17.20;;;;;;;;;;10320123;28;20022;-78
2023/02/14 07:29:43;;;;;;;25.87;13.93;;;;;;;;;;10316632;28;20023;-74
2023/02/14 07:34:43;;;;;;;31.17;15.20;;;;;;;;;;10314558;28;20027;-75
2023/02/14 07:39:44;;;;;;;43.38;17.02;;;;;;;;;;10317639;28;20505;-73
2023/02/14 07:44:45;;;;;;;34.72;14.07;;;;;;;;;;10316803;28;20404;-75
2023/02/14 07:49:45;;;;;;;36.97;17.83;;;;;;;;;;10315626;28;20022;-76
2023/02/14 07:54:45;;;;;;;47.92;17.05;;;;;;;;;;10313541;28;20042;-72
2023/02/14 07:59:46;;;;;;;34.20;16.55;;;;;;;;;;10316884;28;20105;-73
2023/02/14 08:04:46;;;;;;;37.53;15.90;;;;;;;;;;10316606;28;20031;-72
2023/02/14 08:09:46;;;;;;;41.40;15.98;;;;;;;;;;10317679;28;20031;-77
2023/02/14 08:14:46;;;;;;;36.33;16.45;;;;;;;;;;10292457;28;20026;-78
2023/02/14 08:19:47;;;;;;;34.70;15.80;;;;;;;;;;10317413;28;20189;-78
2023/02/14 08:24:47;;;;;;;36.63;16.85;;;;;;;;;;10320958;28;20022;-75
2023/02/14 08:29:47;;;;;;;35.67;15.50;;;;;;;;;;10324105;28;20027;-75
2023/02/14 08:34:47;;;;;;;31.45;14.70;;;;;;;;;;10324693;28;20049;-78
2023/02/14 08:39:48;;;;;;;27.45;13.20;;;;;;;;;;10323566;28;20034;-73
2023/02/14 08:44:48;;;;;;;32.47;14.10;;;;;;;;;;10323532;28;20026;-78
2023/02/14 08:49:49;;;;;;;29.77;13.05;;;;;;;;;;10323709;28;20118;-79
2023/02/14 08:54:49;;;;;;;32.92;13.85;;;;;;;;;;10322721;28;20050;-77
2023/02/14 08:59:49;;;;;;;28.15;14.13;;;;;;;;;;10320510;28;20034;-73
2023/02/14 09:04:50;;;;;;;37.22;15.00;;;;;;;;;;10320211;28;20535;-73
2023/02/14 09:09:50;;;;;;;29.95;12.85;;;;;;;;;;10320976;28;20031;-79
2023/02/14 09:14:50;;;;;;;27.38;13.30;;;;;;;;;;10321543;28;20477;-77
2023/02/14 09:19:51;;;;;;;29.67;13.20;;;;;;;;;;10296609;28;20028;-75
2023/02/14 09:24:51;;;;;;;30.77;13.95;;;;;;;;;;10322313;28;20032;-80
2023/02/14 09:29:51;;;;;;;32.30;14.68;;;;;;;;;;10321548;28;20026;-75
2023/02/14 09:40:18;;;;;;;30.08;15.20;;;;;;;;;;10323635;28;20026;-75
2023/02/14 09:45:20;;;;;;;41.25;17.00;;;;;;;;;;10300562;28;20069;-81
2023/02/14 09:50:26;;;;;;;27.95;13.52;;;;;;;;;;10322543;28;20030;-77
2023/02/14 09:55:35;;;;;;;32.85;13.90;;;;;;;;;;10320671;28;20030;-76
2023/02/14 10:00:44;;;;;;;34.45;14.95;;;;;;;;;;10321206;28;20026;-78
2023/02/14 10:05:53;;;;;;;31.15;13.60;;;;;;;;;;10320649;28;20030;-75
2023/02/14 10:11:12;;;;;;;40.55;14.90;;;;;;;;;;10319255;28;20026;-79
2023/02/14 10:16:32;;;;;;;39.63;15.20;;;;;;;;;;10321379;28;20018;-80
2023/02/14 10:21:35;;;;;;;37.17;14.43;;;;;;;;;;10326259;28;20113;-77
2023/02/14 10:26:38;;;;;;;33.08;13.63;;;;;;;;;;10319669;28;20496;-78
2023/02/14 10:31:54;;;;;;;31.85;13.43;;;;;;;;;;10321194;28;20014;-78
2023/02/14 10:37:07;;;;;;;31.40;13.10;;;;;;;;;;10319625;28;20639;-77
2023/02/14 10:42:20;;;;;;;30.83;13.13;;;;;;;;;;10310362;28;20112;-80
2023/02/14 10:47:32;;;;;;;30.42;13.02;;;;;;;;;;10324283;28;20054;-77
2023/02/14 10:52:42;;;;;;;24.20;11.60;;;;;;;;;;10317479;28;20433;-77
2023/02/14 10:57:44;;;;;;;30.48;11.75;;;;;;;;;;10318942;28;20129;-74
2023/02/14 11:02:46;;;;;;;30.80;13.82;;;;;;;;;;10318032;28;20113;-76
2023/02/14 11:07:47;;;;;;;28.67;12.93;;;;;;;;;;10318053;28;20621;-76
2023/02/14 11:12:47;;;;;;;33.88;13.52;;;;;;;;;;10314652;28;20029;-77
2023/02/14 11:17:47;;;;;;;25.92;12.52;;;;;;;;;;10318551;28;20056;-79
2023/02/14 11:22:48;;;;;;;35.33;12.93;;;;;;;;;;10281303;28;20028;-78
2023/02/14 11:28:00;;;;;;;29.27;12.65;;;;;;;;;;10317569;28;20030;-76
2023/02/14 11:33:01;;;;;;;21.23;10.70;;;;;;;;;;10317829;28;20834;-73
2023/02/14 11:38:03;;;;;;;23.00;11.93;;;;;;;;;;10315461;28;20484;-78
2023/02/14 11:43:10;;;;;;;29.85;13.18;;;;;;;;;;10314904;28;20027;-81
2023/02/14 11:48:19;;;;;;;24.25;11.70;;;;;;;;;;10316634;28;20494;-78
2023/02/14 11:53:22;;;;;;;27.63;12.25;;;;;;;;;;10315573;28;20095;-74
2023/02/14 11:58:31;;;;;;;21.75;10.55;;;;;;;;;;10305685;28;20619;-77
2023/02/14 12:03:38;;;;;;;34.97;15.57;;;;;;;;;;10325353;28;20061;-76
2023/02/14 12:08:40;;;;;;;21.55;11.90;;;;;;;;;;10325214;28;20535;-76
2023/02/14 12:13:49;;;;;;;18.20;10.48;;;;;;;;;;10325175;28;20018;-78
2023/02/14 12:18:58;;;;;;;19.27;10.30;;;;;;;;;;10325951;28;20077;-78
2023/02/14 12:24:12;;;;;;;22.23;11.30;;;;;;;;;;10326235;28;20028;-75
2023/02/14 12:29:25;;;;;;;19.38;10.43;;;;;;;;;;10330409;28;20110;-76
2023/02/14 12:34:25;;;;;;;17.63;8.75;;;;;;;;;;10329167;28;20018;-77
2023/02/14 12:39:44;;;;;;;24.70;10.43;;;;;;;;;;10328053;28;20096;-77
2023/02/14 12:44:54;;;;;;;23.83;12.18;;;;;;;;;;10329915;28;20843;-78
2023/02/14 12:50:00;;;;;;;19.33;9.73;;;;;;;;;;10324410;28;20028;-79
2023/02/14 12:55:19;;;;;;;19.05;10.63;;;;;;;;;;10324409;28;20038;-81
2023/02/14 13:00:38;;;;;;;16.30;9.38;;;;;;;;;;10324655;28;20492;-73
2023/02/14 13:05:50;;;;;;;19.80;11.13;;;;;;;;;;10315103;28;20042;-80
2023/02/14 13:10:59;;;;;;;19.60;10.52;;;;;;;;;;10323548;28;20049;-78
2023/02/14 13:15:59;;;;;;;;;;;;;;;;;;10322594;28;20022;-73
2023/02/14 13:21:00;;;;;;;19.08;10.77;;;;;;;;;;10323942;28;20303;-79
2023/02/14 13:26:17;;;;;;;15.95;9.48;;;;;;;;;;10322589;28;20400;-80
2023/02/14 13:31:19;;;;;;;19.00;11.40;;;;;;;;;;10322228;28;20443;-78
2023/02/14 13:36:20;;;;;;;21.23;10.23;;;;;;;;;;10311025;28;20101;-74
2023/02/14 13:41:21;;;;;;;30.55;15.48;;;;;;;;;;10318065;28;20018;-76
2023/02/14 13:46:30;;;;;;;24.42;12.90;;;;;;;;;;10311706;28;20422;-79
2023/02/14 13:51:50;;;;;;;20.08;10.27;;;;;;;;;;10314054;28;20029;-78
2023/02/14 13:56:51;;;;;;;23.65;11.45;;;;;;;;;;10314476;28;20040;-78
2023/02/14 14:01:51;;;;;;;29.53;13.40;;;;;;;;;;10311912;28;20536;-75
2023/02/14 14:07:04;;;;;;;27.48;13.23;;;;;;;;;;10297329;28;20281;-72
2023/02/14 14:12:24;;;;;;;28.40;14.65;;;;;;;;;;10281743;28;20438;-78
2023/02/14 14:17:24;;;;;;;21.92;11.45;;;;;;;;;;10302496;28;20069;-72
2023/02/14 14:22:25;;;;;;;23.52;11.82;;;;;;;;;;10318976;28;20792;-73
2023/02/14 14:27:29;;;;;;;31.45;12.95;;;;;;;;;;10319494;28;20022;-74
2023/02/14 14:32:31;;;;;;;26.15;12.38;;;;;;;;;;10321126;28;20030;-78
2023/02/14 14:37:34;;;;;;;25.70;11.27;;;;;;;;;;10320597;28;20090;-70
2023/02/14 14:42:38;;;;;;;21.40;12.50;;;;;;;;;;10319225;28;20378;-77
2023/02/14 14:47:43;;;;;;;23.42;11.70;;;;;;;;;;10318531;28;20033;-75
2023/02/14 14:52:57;;;;;;;24.05;12.10;;;;;;;;;;10318454;28;20096;-77
2023/02/14 14:58:05;;;;;;;24.70;12.68;;;;;;;;;;10319151;28;20081;-72
2023/02/14 15:03:12;;;;;;;25.73;11.77;;;;;;;;;;10318911;28;20110;-78
2023/02/14 15:08:13;;;;;;;25.95;13.35;;;;;;;;;;10312339;28;20460;-77
2023/02/14 15:18:32;;;;;;;23.50;12.30;;;;;;;;;;10319277;28;20035;-77
2023/02/14 15:23:33;;;;;;;21.67;11.73;;;;;;;;;;10318355;28;20034;-76
2023/02/14 15:28:34;;;;;;;32.13;13.40;;;;;;;;;;10308390;28;20100;-74
2023/02/14 15:33:34;;;;;;;27.55;12.05;;;;;;;;;;10316731;28;20018;-75
2023/02/14 15:38:36;;;;;;;32.42;14.30;;;;;;;;;;10318454;28;20030;-79
2023/02/14 15:43:36;;;;;;;31.35;13.15;;;;;;;;;;10317553;28;20081;-76
2023/02/14 15:48:38;;;;;;;29.58;13.23;;;;;;;;;;10276700;28;20026;-73
2023/02/14 15:53:40;;;;;;;26.60;13.20;;;;;;;;;;10289039;28;20568;-77
2023/02/14 15:58:43;;;;;;;26.15;13.80;;;;;;;;;;10316557;28;20050;-74
2023/02/14 16:03:49;;;;;;;23.70;13.43;;;;;;;;;;10316614;28;20034;-77
2023/02/14 16:08:53;;;;;;;28.55;14.00;;;;;;;;;;10315718;28;20140;-74
2023/02/14 16:13:54;;;;;;;25.70;13.43;;;;;;;;;;10316272;28;20021;-77
2023/02/14 16:18:55;;;;;;;25.85;14.05;;;;;;;;;;10297952;28;20037;-74
2023/02/14 16:24:09;;;;;;;22.60;13.02;;;;;;;;;;10311938;28;20026;-73
2023/02/14 16:29:10;;;;;;;23.35;11.93;;;;;;;;;;10277669;28;20038;-76
2023/02/14 16:34:11;;;;;;;29.10;13.43;;;;;;;;;;10298026;28;20046;-78
2023/02/14 16:39:16;;;;;;;24.25;11.75;;;;;;;;;;10281972;28;20031;-72
2023/02/14 16:44:18;;;;;;;28.08;12.57;;;;;;;;;;10318792;28;20034;-72
2023/02/14 16:49:18;;;;;;;32.42;13.68;;;;;;;;;;10316635;28;20080;-73
2023/02/14 16:54:19;;;;;;;37.50;14.40;;;;;;;;;;10318555;28;20372;-72
2023/02/14 16:59:19;;;;;;;30.95;14.85;;;;;;;;;;10322698;28;20126;-73
2023/02/14 17:04:20;;;;;;;27.17;13.20;;;;;;;;;;10321699;28;20189;-73
2023/02/14 17:09:23;;;;;;;24.40;13.20;;;;;;;;;;10322247;28;21172;-72
2023/02/14 17:14:24;;;;;;;26.55;15.25;;;;;;;;;;10320697;28;20050;-77
2023/02/14 17:19:25;;;;;;;28.45;14.80;;;;;;;;;;10307142;28;20113;-77
2023/02/14 17:24:25;;;;;;;27.60;15.07;;;;;;;;;;10321488;28;20030;-74
2023/02/14 17:29:26;;;;;;;27.75;13.88;;;;;;;;;;10321842;28;20029;-76
2023/02/14 17:34:30;;;;;;;26.02;13.65;;;;;;;;;;10321219;28;20031;-78
2023/02/14 17:39:30;;;;;;;26.42;13.93;;;;;;;;;;10309342;28;20121;-71
2023/02/14 17:44:34;;;;;;;27.63;13.95;;;;;;;;;;10321231;28;20034;-75
2023/02/14 17:49:34;;;;;;;27.17;14.95;;;;;;;;;;10320265;28;20428;-76
2023/02/14 17:54:36;;;;;;;27.85;14.20;;;;;;;;;;10320775;28;20050;-78
2023/02/14 17:59:36;;;;;;;24.67;15.27;;;;;;;;;;10319828;28;20038;-77
2023/02/14 18:04:36;;;;;;;35.42;16.98;;;;;;;;;;10321101;28;20026;-77
2023/02/14 18:09:37;;;;;;;32.13;15.33;;;;;;;;;;10321404;28;20081;-72
2023/02/14 18:14:37;;;;;;;32.90;15.50;;;;;;;;;;10319224;28;20037;-73
2023/02/14 18:19:37;;;;;;;32.33;15.03;;;;;;;;;;10319802;28;20034;-72
2023/02/14 18:24:38;;;;;;;33.92;14.48;;;;;;;;;;10303456;28;20033;-73
2023/02/14 18:29:38;;;;;;;23.40;13.67;;;;;;;;;;10319838;28;20557;-73
2023/02/14 18:34:38;;;;;;;24.60;14.68;;;;;;;;;;10321382;28;20022;-72
2023/02/14 18:39:39;;;;;;;27.00;14.90;;;;;;;;;;10291920;28;20872;-73
2023/02/14 18:44:39;;;;;;;27.50;14.10;;;;;;;;;;10308064;28;20026;-75
2023/02/14 18:49:39;;;;;;;26.80;13.98;;;;;;;;;;10299807;28;20035;-71
2023/02/14 18:54:39;;;;;;;26.70;12.52;;;;;;;;;;10277278;28;20061;-73
2023/02/14 18:59:40;;;;;;;29.77;15.63;;;;;;;;;;10275666;28;20038;-73
2023/02/14 19:04:40;;;;;;;30.73;14.03;;;;;;;;;;10285856;28;20343;-72
2023/02/14 19:09:41;;;;;;;30.87;14.23;;;;;;;;;;10283940;28;20488;-77
2023/02/14 19:14:42;;;;;;;27.88;13.35;;;;;;;;;;10281010;28;20034;-72
2023/02/14 19:19:42;;;;;;;31.80;14.73;;;;;;;;;;10280411;28;20093;-75
2023/02/14 19:24:43;;;;;;;26.73;13.63;;;;;;;;;;10278588;28;20037;-74
2023/02/14 19:29:43;;;;;;;29.83;13.40;;;;;;;;;;10281266;28;20455;-75
2023/02/14 19:34:43;;;;;;;30.02;14.70;;;;;;;;;;10286040;28;20278;-72
2023/02/14 19:39:44;;;;;;;32.83;14.60;;;;;;;;;;10291680;28;20034;-72
2023/02/14 19:44:45;;;;;;;32.22;17.30;;;;;;;;;;10295320;28;20085;-72
2023/02/14 19:49:45;;;;;;;30.90;16.17;;;;;;;;;;10288732;28;20117;-73
2023/02/14 19:54:45;;;;;;;33.95;16.08;;;;;;;;;;10291185;28;20058;-74
2023/02/14 19:59:46;;;;;;;37.13;17.63;;;;;;;;;;10286861;28;20027;-76
2023/02/14 20:04:46;;;;;;;39.05;19.23;;;;;;;;;;10291300;28;20389;-69
2023/02/14 20:09:46;;;;;;;36.38;19.27;;;;;;;;;;10285992;28;20065;-75
2023/02/14 20:14:49;;;;;;;39.13;20.38;;;;;;;;;;10293272;28;20019;-76
2023/02/14 20:19:49;;;;;;;40.17;19.08;;;;;;;;;;10318568;28;20048;-75
2023/02/14 20:24:49;;;;;;;37.10;18.83;;;;;;;;;;10307221;28;20544;-76
2023/02/14 20:29:50;;;;;;;36.37;20.33;;;;;;;;;;10318382;28;20042;-71
2023/02/14 20:34:50;;;;;;;36.10;19.17;;;;;;;;;;10305406;28;20280;-68
2023/02/14 20:39:51;;;;;;;41.93;20.20;;;;;;;;;;10320807;28;20030;-75
2023/02/14 20:44:52;;;;;;;42.40;20.77;;;;;;;;;;10321490;28;20033;-70
2023/02/14 20:49:52;;;;;;;43.05;20.00;;;;;;;;;;10321320;28;20415;-71
2023/02/14 20:54:52;;;;;;;38.35;20.75;;;;;;;;;;10318281;28;20129;-75
2023/02/14 20:59:52;;;;;;;44.47;20.98;;;;;;;;;;10315968;28;20030;-71
2023/02/14 21:04:53;;;;;;;37.25;19.42;;;;;;;;;;10321372;28;20121;-73
2023/02/14 21:09:53;;;;;;;53.30;21.77;;;;;;;;;;10319644;28;20019;-71
2023/02/14 21:14:53;;;;;;;47.38;23.38;;;;;;;;;;10315287;28;20023;-77
2023/02/14 21:19:53;;;;;;;45.05;22.42;;;;;;;;;;10319895;28;20022;-70
2023/02/14 21:24:54;;;;;;;47.38;23.35;;;;;;;;;;10319452;28;20030;-69
2023/02/14 21:29:54;;;;;;;52.03;25.07;;;;;;;;;;10314345;28;20583;-71
2023/02/14 21:34:54;;;;;;;47.53;22.45;;;;;;;;;;10313069;28;20144;-72
2023/02/14 21:39:54;;;;;;;55.58;24.92;;;;;;;;;;10318248;28;20487;-77
2023/02/14 21:50:29;;;;;;;49.60;24.98;;;;;;;;;;10314839;28;20033;-72
2023/02/14 21:55:29;;;;;;;50.30;23.52;;;;;;;;;;10303075;28;20038;-74
2023/02/14 22:00:30;;;;;;;49.40;22.75;;;;;;;;;;10306943;28;20174;-73
2023/02/14 22:05:30;;;;;;;50.05;24.00;;;;;;;;;;10319700;28;20489;-71
2023/02/14 22:10:30;;;;;;;50.92;24.25;;;;;;;;;;10305628;28;20133;-75
2023/02/14 22:15:31;;;;;;;50.20;23.40;;;;;;;;;;10301455;28;20019;-75
2023/02/14 22:20:31;;;;;;;50.40;24.20;;;;;;;;;;10311701;28;20036;-72
2023/02/14 22:25:31;;;;;;;52.78;24.13;;;;;;;;;;10317852;28;20030;-74
2023/02/14 22:30:31;;;;;;;53.17;25.10;;;;;;;;;;10314807;28;20014;-70
2023/02/14 22:35:32;;;;;;;55.47;26.75;;;;;;;;;;10318524;28;20026;-72
2023/02/14 22:40:32;;;;;;;52.72;26.10;;;;;;;;;;10316769;28;20041;-73
2023/02/14 22:45:32;;;;;;;69.20;26.65;;;;;;;;;;10306522;28;20026;-71
2023/02/14 22:50:34;;;;;;;57.33;27.00;;;;;;;;;;10307501;28;20027;-77
2023/02/14 22:55:34;;;;;;;62.33;29.67;;;;;;;;;;10303941;28;20034;-73
2023/02/14 23:00:34;;;;;;;58.10;26.15;;;;;;;;;;10312498;28;20049;-71
2023/02/14 23:05:35;;;;;;;58.90;27.47;;;;;;;;;;10316937;28;20018;-75
2023/02/14 23:10:35;;;;;;;67.30;27.63;;;;;;;;;;10317902;28;20069;-71
2023/02/14 23:26:17;;;;;;;60.08;26.98;;;;;;;;;;10310908;28;20030;-71
2023/02/14 23:31:17;;;;;;;54.83;27.25;;;;;;;;;;10305752;28;20096;-75
2023/02/14 23:36:18;;;;;;;64.15;28.23;;;;;;;;;;10307015;28;20034;-75
2023/02/14 23:46:37;;;;;;;64.60;29.45;;;;;;;;;;10280167;28;20027;-72
2023/02/14 23:51:37;;;;;;;64.65;27.13;;;;;;;;;;10315789;28;20435;-77
2023/02/14 23:56:39;;;;;;;60.92;28.77;;;;;;;;;;10328153;28;20026;-74
